Time;durP1;ratioP1;P1;durP2;ratioP2;P2;SDS_P1;SDS_P2;PMS_P1;PMS_P2;Temp;Humidity;BMP_temperature;BMP_pressure;BME280_temperature;BME280_humidity;BME280_pressure;Samples;Min_cycle;Max_cycle;Signal;HPM_P1;HPM_P2
2021/08/10 00:01:08;;;;;;;15.25;5.65;;;;;;;;;;5135233;27;20027;-67
2021/08/10 00:03:34;;;;;;;13.00;5.63;;;;;;;;;;5136343;27;20066;-67
2021/08/10 00:06:00;;;;;;;10.75;5.53;;;;;;;;;;5117832;27;20467;-67
2021/08/10 00:08:26;;;;;;;12.05;5.88;;;;;;;;;;5136486;27;20110;-68
2021/08/10 00:10:53;;;;;;;16.63;6.00;;;;;;;;;;5135911;27;20102;-66
2021/08/10 00:13:21;;;;;;;11.13;5.63;;;;;;;;;;5136240;27;20118;-67
2021/08/10 00:15:48;;;;;;;10.93;5.60;;;;;;;;;;5136114;27;20047;-67
2021/08/10 00:18:14;;;;;;;11.43;5.63;;;;;;;;;;5117647;27;20029;-67
2021/08/10 00:20:40;;;;;;;11.90;5.85;;;;;;;;;;5135788;27;20076;-68
2021/08/10 00:23:07;;;;;;;13.57;5.97;;;;;;;;;;5117465;27;20023;-70
2021/08/10 00:28:36;;;;;;;18.25;6.03;;;;;;;;;;5135943;27;20045;-67
2021/08/10 00:31:03;;;;;;;13.13;6.38;;;;;;;;;;5135551;27;20106;-65
2021/08/10 00:33:29;;;;;;;16.50;5.90;;;;;;;;;;5135820;27;20348;-67
2021/08/10 00:35:55;;;;;;;13.38;6.40;;;;;;;;;;5135740;27;20098;-66
2021/08/10 00:38:21;;;;;;;10.82;5.90;;;;;;;;;;5135625;27;20027;-68
2021/08/10 00:40:48;;;;;;;11.60;6.13;;;;;;;;;;5135647;27;20418;-65
2021/08/10 00:43:44;;;;;;;17.60;6.45;;;;;;;;;;5135265;27;20382;-66
2021/08/10 00:46:11;;;;;;;13.40;5.97;;;;;;;;;;5031909;28;20039;-65
2021/08/10 00:48:37;;;;;;;9.82;6.35;;;;;;;;;;5031755;28;20057;-70
2021/08/10 00:51:05;;;;;;;14.57;7.05;;;;;;;;;;5031876;28;20029;-68
2021/08/10 00:53:39;;;;;;;16.05;8.00;;;;;;;;;;5031945;28;20442;-69
2021/08/10 00:56:06;;;;;;;11.80;7.05;;;;;;;;;;5031825;28;20032;-68
2021/08/10 00:58:32;;;;;;;13.15;7.20;;;;;;;;;;5032012;28;20492;-66
2021/08/10 01:00:59;;;;;;;16.25;7.13;;;;;;;;;;5031729;28;20133;-66
2021/08/10 01:03:25;;;;;;;10.48;7.05;;;;;;;;;;5031633;28;20046;-68
2021/08/10 01:05:51;;;;;;;17.77;7.72;;;;;;;;;;5031675;28;20028;-70
2021/08/10 01:08:40;;;;;;;13.25;7.18;;;;;;;;;;5031551;28;20489;-67
2021/08/10 01:11:22;;;;;;;11.30;7.10;;;;;;;;;;5023709;28;20045;-68
2021/08/10 01:13:48;;;;;;;;;;;;;;;;;;5031951;28;20053;-65
2021/08/10 01:16:27;;;;;;;13.57;6.65;;;;;;;;;;5031446;28;19909;-69
2021/08/10 01:19:00;;;;;;;9.52;7.40;;;;;;;;;;5031424;28;20117;-69
2021/08/10 01:21:28;;;;;;;12.57;8.30;;;;;;;;;;5019514;27;20022;-68
2021/08/10 01:24:20;;;;;;;14.00;9.50;;;;;;;;;;5116324;27;20118;-70
2021/08/10 01:26:58;;;;;;;13.27;8.27;;;;;;;;;;5130096;27;20037;-69
2021/08/10 01:29:27;;;;;;;10.43;6.80;;;;;;;;;;5134415;27;20118;-69
2021/08/10 01:31:53;;;;;;;12.40;7.03;;;;;;;;;;5134735;27;20041;-70
2021/08/10 01:34:24;;;;;;;15.57;7.05;;;;;;;;;;5134636;27;20015;-68
2021/08/10 01:36:52;;;;;;;14.00;6.80;;;;;;;;;;5134985;27;20034;-69
2021/08/10 01:39:18;;;;;;;11.25;7.13;;;;;;;;;;5134541;27;20027;-69
2021/08/10 01:41:45;;;;;;;13.05;7.07;;;;;;;;;;5134460;27;20027;-69
2021/08/10 01:44:12;;;;;;;13.85;7.20;;;;;;;;;;5134628;27;20041;-70
2021/08/10 01:46:40;;;;;;;10.73;6.40;;;;;;;;;;5134446;27;20023;-69
2021/08/10 01:49:06;;;;;;;8.65;6.72;;;;;;;;;;5134313;27;20051;-66
2021/08/10 01:51:33;;;;;;;8.52;7.13;;;;;;;;;;5134054;27;20015;-69
2021/08/10 01:54:02;;;;;;;9.63;6.85;;;;;;;;;;5134389;27;20061;-70
2021/08/10 01:56:29;;;;;;;15.68;7.68;;;;;;;;;;5134301;27;20019;-68
2021/08/10 01:58:57;;;;;;;13.70;7.85;;;;;;;;;;5134216;27;20027;-68
2021/08/10 02:01:24;;;;;;;12.98;7.95;;;;;;;;;;5134204;27;20023;-66
2021/08/10 02:03:50;;;;;;;11.55;7.90;;;;;;;;;;5115754;27;20031;-69
2021/08/10 02:06:18;;;;;;;10.60;7.85;;;;;;;;;;5115694;27;20464;-68
2021/08/10 02:08:45;;;;;;;15.38;7.90;;;;;;;;;;5134112;27;20019;-69
2021/08/10 02:11:12;;;;;;;11.60;7.95;;;;;;;;;;5134323;27;20050;-68
2021/08/10 02:13:38;;;;;;;9.90;6.85;;;;;;;;;;5115639;28;20024;-69
2021/08/10 02:16:06;;;;;;;11.68;8.05;;;;;;;;;;5134063;28;20019;-67
2021/08/10 02:18:32;;;;;;;15.13;7.82;;;;;;;;;;5134021;28;20027;-69
2021/08/10 02:21:02;;;;;;;11.40;7.88;;;;;;;;;;5133987;28;20015;-70
2021/08/10 02:23:30;;;;;;;13.57;8.05;;;;;;;;;;5115702;27;20081;-70
2021/08/10 02:25:57;;;;;;;13.35;7.50;;;;;;;;;;5119796;27;20375;-67
2021/08/10 02:28:24;;;;;;;14.52;7.00;;;;;;;;;;5138164;27;20023;-69
2021/08/10 02:30:53;;;;;;;8.25;7.25;;;;;;;;;;5138248;27;20023;-68
2021/08/10 02:33:21;;;;;;;12.00;7.07;;;;;;;;;;5138179;27;20015;-67
2021/08/10 02:35:50;;;;;;;11.32;7.75;;;;;;;;;;5119578;27;20479;-69
2021/08/10 02:38:18;;;;;;;8.60;7.00;;;;;;;;;;5138053;27;20027;-69
2021/08/10 02:40:47;;;;;;;9.00;7.00;;;;;;;;;;5137987;27;20035;-66
2021/08/10 02:43:14;;;;;;;11.50;8.30;;;;;;;;;;5119397;27;20084;-69
2021/08/10 02:45:40;;;;;;;9.57;6.55;;;;;;;;;;5138110;27;20027;-69
2021/08/10 02:48:06;;;;;;;12.02;7.55;;;;;;;;;;5137728;27;20051;-69
2021/08/10 02:50:33;;;;;;;11.45;6.60;;;;;;;;;;5137769;27;20068;-68
2021/08/10 02:53:00;;;;;;;9.00;7.10;;;;;;;;;;5137780;27;20472;-69
2021/08/10 02:55:27;;;;;;;13.63;7.60;;;;;;;;;;5137788;27;20023;-70
2021/08/10 02:58:11;;;;;;;14.30;8.30;;;;;;;;;;5137676;27;20030;-65
2021/08/10 03:00:41;;;;;;;12.73;8.15;;;;;;;;;;5137622;27;20019;-67
2021/08/10 03:03:11;;;;;;;10.45;7.53;;;;;;;;;;5137525;27;20031;-69
2021/08/10 03:05:38;;;;;;;15.48;7.57;;;;;;;;;;5137495;27;20050;-68
2021/08/10 03:08:07;;;;;;;12.65;8.00;;;;;;;;;;5137186;27;20076;-68
2021/08/10 03:10:34;;;;;;;12.25;7.30;;;;;;;;;;5118943;27;20042;-68
2021/08/10 03:13:03;;;;;;;13.20;8.48;;;;;;;;;;5137401;27;20483;-66
2021/08/10 03:15:33;;;;;;;16.20;8.30;;;;;;;;;;5118651;27;20035;-65
2021/08/10 03:18:01;;;;;;;14.43;8.20;;;;;;;;;;5137271;27;20102;-67
2021/08/10 03:20:27;;;;;;;14.30;8.60;;;;;;;;;;5137488;27;20023;-65
2021/08/10 03:22:56;;;;;;;16.02;8.48;;;;;;;;;;5137173;27;20025;-68
2021/08/10 03:25:23;;;;;;;18.85;9.40;;;;;;;;;;5118576;27;20469;-68
2021/08/10 03:27:50;;;;;;;15.70;8.80;;;;;;;;;;5137135;27;20054;-66
2021/08/10 03:30:17;;;;;;;16.25;7.93;;;;;;;;;;5137060;27;20107;-66
2021/08/10 03:32:45;;;;;;;11.02;8.27;;;;;;;;;;5136984;27;20026;-68
2021/08/10 03:35:11;;;;;;;14.10;7.90;;;;;;;;;;5118492;27;20114;-66
2021/08/10 03:37:38;;;;;;;17.67;8.60;;;;;;;;;;5136577;27;20544;-66
2021/08/10 03:40:06;;;;;;;14.02;8.98;;;;;;;;;;5118380;27;20055;-68
2021/08/10 03:42:34;;;;;;;13.40;9.25;;;;;;;;;;5136747;27;20084;-68
2021/08/10 03:45:00;;;;;;;16.52;9.73;;;;;;;;;;5136467;27;20502;-68
2021/08/10 03:47:26;;;;;;;10.98;9.02;;;;;;;;;;5136707;27;20031;-68
2021/08/10 03:49:54;;;;;;;16.73;9.10;;;;;;;;;;5136628;27;20200;-67
2021/08/10 03:52:20;;;;;;;13.65;9.10;;;;;;;;;;5136598;27;20030;-69
2021/08/10 03:54:48;;;;;;;10.77;8.75;;;;;;;;;;5136219;27;20449;-68
2021/08/10 03:57:15;;;;;;;11.40;8.82;;;;;;;;;;5136229;27;20360;-66
2021/08/10 03:59:42;;;;;;;15.05;8.57;;;;;;;;;;5136441;27;20019;-68
2021/08/10 04:02:09;;;;;;;13.57;8.25;;;;;;;;;;5117963;27;20077;-67
2021/08/10 04:04:36;;;;;;;13.60;7.95;;;;;;;;;;5136340;27;20108;-67
2021/08/10 04:07:03;;;;;;;13.23;7.93;;;;;;;;;;5136605;27;20035;-69
2021/08/10 04:09:30;;;;;;;16.65;8.93;;;;;;;;;;5136605;27;20121;-67
2021/08/10 04:11:56;;;;;;;16.92;8.70;;;;;;;;;;5136208;27;20027;-70
2021/08/10 04:14:22;;;;;;;15.13;8.93;;;;;;;;;;5136488;27;20379;-70
2021/08/10 04:16:57;;;;;;;16.83;8.27;;;;;;;;;;5136106;27;20032;-68
2021/08/10 04:19:25;;;;;;;11.10;8.10;;;;;;;;;;5117656;27;20051;-68
2021/08/10 04:21:51;;;;;;;20.80;8.85;;;;;;;;;;5136028;27;20016;-67
2021/08/10 04:24:17;;;;;;;11.38;7.70;;;;;;;;;;5135961;27;20384;-69
2021/08/10 04:26:43;;;;;;;12.05;7.88;;;;;;;;;;5135930;27;20050;-69
2021/08/10 04:29:10;;;;;;;17.80;7.90;;;;;;;;;;5135568;27;20028;-67
2021/08/10 04:31:36;;;;;;;10.73;7.80;;;;;;;;;;5117386;27;20122;-65
2021/08/10 04:34:02;;;;;;;21.15;8.23;;;;;;;;;;5135786;27;20094;-66
2021/08/10 04:36:28;;;;;;;10.98;7.50;;;;;;;;;;5135708;27;20102;-67
2021/08/10 04:38:55;;;;;;;12.52;8.55;;;;;;;;;;5117211;27;20114;-68
2021/08/10 04:41:21;;;;;;;16.83;7.50;;;;;;;;;;5135658;27;20041;-67
2021/08/10 04:43:47;;;;;;;15.25;7.00;;;;;;;;;;5135497;27;20027;-66
2021/08/10 04:46:14;;;;;;;17.48;7.35;;;;;;;;;;5135282;27;20150;-68
2021/08/10 04:48:40;;;;;;;13.50;7.75;;;;;;;;;;5134896;27;20126;-68
2021/08/10 04:51:06;;;;;;;8.50;7.55;;;;;;;;;;5135526;27;20030;-68
2021/08/10 04:53:32;;;;;;;10.88;6.80;;;;;;;;;;5135425;27;20023;-66
2021/08/10 04:55:58;;;;;;;13.80;7.80;;;;;;;;;;5135429;27;20062;-68
2021/08/10 04:58:25;;;;;;;13.90;7.65;;;;;;;;;;5116826;27;20129;-67
2021/08/10 05:00:51;;;;;;;16.48;8.07;;;;;;;;;;5135182;27;20110;-67
2021/08/10 05:03:17;;;;;;;14.13;9.07;;;;;;;;;;5135171;27;20022;-67
2021/08/10 05:05:43;;;;;;;12.75;8.80;;;;;;;;;;5135190;27;20027;-67
2021/08/10 05:08:10;;;;;;;12.93;8.60;;;;;;;;;;5135116;27;20138;-67
2021/08/10 05:10:36;;;;;;;16.63;8.48;;;;;;;;;;5135054;27;20048;-68
2021/08/10 05:13:02;;;;;;;11.80;8.93;;;;;;;;;;5135289;27;20102;-68
2021/08/10 05:15:28;;;;;;;16.13;7.82;;;;;;;;;;5116545;27;20027;-68
2021/08/10 05:17:54;;;;;;;11.85;7.22;;;;;;;;;;5116502;27;20023;-66
2021/08/10 05:20:20;;;;;;;11.32;8.15;;;;;;;;;;5134821;27;20035;-67
2021/08/10 05:22:47;;;;;;;11.70;7.10;;;;;;;;;;5135031;27;20062;-68
2021/08/10 05:25:13;;;;;;;10.55;7.70;;;;;;;;;;5116334;27;20479;-67
2021/08/10 05:27:39;;;;;;;11.10;7.20;;;;;;;;;;5134933;27;20372;-66
2021/08/10 05:30:06;;;;;;;13.27;8.07;;;;;;;;;;5134097;27;20430;-66
2021/08/10 05:32:32;;;;;;;15.45;7.07;;;;;;;;;;5115963;27;20106;-67
2021/08/10 05:34:58;;;;;;;13.80;8.00;;;;;;;;;;5134602;27;20023;-69
2021/08/10 05:37:24;;;;;;;15.63;7.63;;;;;;;;;;5134535;27;20034;-67
2021/08/10 05:39:51;;;;;;;19.73;7.50;;;;;;;;;;5134142;27;20364;-69
2021/08/10 05:42:17;;;;;;;12.68;6.85;;;;;;;;;;5133828;27;20059;-68
2021/08/10 05:44:43;;;;;;;11.57;7.10;;;;;;;;;;5134291;27;20061;-67
2021/08/10 05:47:09;;;;;;;7.97;6.18;;;;;;;;;;5134028;27;20029;-67
2021/08/10 05:49:35;;;;;;;11.57;6.55;;;;;;;;;;5134277;27;20129;-68
2021/08/10 05:52:03;;;;;;;9.40;6.68;;;;;;;;;;5134233;27;20031;-67
2021/08/10 05:54:29;;;;;;;12.52;6.93;;;;;;;;;;5134166;27;20033;-69
2021/08/10 05:56:55;;;;;;;10.82;6.57;;;;;;;;;;5133963;27;20015;-67
2021/08/10 05:59:21;;;;;;;12.65;7.38;;;;;;;;;;5133060;27;20027;-68
2021/08/10 06:01:47;;;;;;;12.20;6.90;;;;;;;;;;5134156;27;20027;-68
2021/08/10 06:04:14;;;;;;;13.00;6.65;;;;;;;;;;5134050;27;20437;-66
2021/08/10 06:06:40;;;;;;;22.70;8.40;;;;;;;;;;5134157;27;20035;-67
2021/08/10 06:09:06;;;;;;;58.30;13.48;;;;;;;;;;5134149;27;20016;-69
2021/08/10 06:11:33;;;;;;;14.18;7.05;;;;;;;;;;5115538;28;20024;-68
2021/08/10 06:13:59;;;;;;;8.55;6.15;;;;;;;;;;5133991;27;20027;-68
2021/08/10 06:16:26;;;;;;;10.63;6.50;;;;;;;;;;5133744;28;20094;-68
2021/08/10 06:18:52;;;;;;;13.27;5.95;;;;;;;;;;5133991;28;20079;-68
2021/08/10 06:21:19;;;;;;;10.70;6.65;;;;;;;;;;5133990;28;20012;-65
2021/08/10 06:23:45;;;;;;;9.75;6.30;;;;;;;;;;5133836;28;20026;-68
2021/08/10 06:26:11;;;;;;;9.77;6.28;;;;;;;;;;5115188;28;20039;-68
2021/08/10 06:28:37;;;;;;;12.35;6.07;;;;;;;;;;5115417;28;20460;-66
2021/08/10 06:31:04;;;;;;;9.38;6.55;;;;;;;;;;5133845;28;20467;-67
2021/08/10 06:33:31;;;;;;;17.83;6.22;;;;;;;;;;5133595;28;20092;-73
2021/08/10 06:35:57;;;;;;;15.82;6.13;;;;;;;;;;5131903;28;20493;-74
2021/08/10 06:38:23;;;;;;;20.35;7.25;;;;;;;;;;5132806;28;20428;-72
2021/08/10 06:40:50;;;;;;;14.75;7.32;;;;;;;;;;5133211;28;20026;-71
2021/08/10 06:43:16;;;;;;;11.20;6.93;;;;;;;;;;5133484;28;20024;-72
2021/08/10 06:45:42;;;;;;;13.50;6.60;;;;;;;;;;5133895;28;20054;-72
2021/08/10 06:48:08;;;;;;;16.42;8.32;;;;;;;;;;5133064;28;20035;-72
2021/08/10 06:50:34;;;;;;;17.77;7.80;;;;;;;;;;5115079;28;20051;-73
2021/08/10 06:53:01;;;;;;;19.08;6.38;;;;;;;;;;5133449;28;20026;-71
2021/08/10 06:55:27;;;;;;;15.18;6.43;;;;;;;;;;5114848;28;20114;-72
2021/08/10 06:57:53;;;;;;;16.52;6.03;;;;;;;;;;5133601;28;20098;-73
2021/08/10 07:00:20;;;;;;;17.85;6.15;;;;;;;;;;5133227;28;20023;-74
2021/08/10 07:02:46;;;;;;;18.33;5.75;;;;;;;;;;5111182;28;20056;-72
2021/08/10 07:05:14;;;;;;;11.82;6.50;;;;;;;;;;5113015;28;20161;-71
2021/08/10 07:07:40;;;;;;;22.33;6.18;;;;;;;;;;5112971;28;20074;-71
2021/08/10 07:10:07;;;;;;;12.25;5.60;;;;;;;;;;5114272;28;20020;-72
2021/08/10 07:12:33;;;;;;;14.07;5.18;;;;;;;;;;5116632;28;20076;-73
2021/08/10 07:14:59;;;;;;;9.35;5.18;;;;;;;;;;5116290;28;20110;-74
2021/08/10 07:17:25;;;;;;;12.32;5.25;;;27.00;91.30;;;;;;5116908;28;20054;-71
2021/08/10 07:19:51;;;;;;;6.50;4.47;;;27.10;91.30;;;;;;5116472;28;20055;-72
2021/08/10 07:22:17;;;;;;;10.80;5.03;;;27.20;90.20;;;;;;5115020;28;20028;-71
2021/08/10 07:24:43;;;;;;;9.23;5.53;;;27.20;90.70;;;;;;5116368;27;20353;-72
2021/08/10 07:27:08;;;;;;;12.35;5.68;;;27.30;91.20;;;;;;5115088;28;20062;-70
2021/08/10 07:29:34;;;;;;;13.07;4.38;;;27.50;90.50;;;;;;5116208;28;20027;-70
2021/08/10 07:32:00;;;;;;;13.73;5.40;;;27.60;90.80;;;;;;5114750;28;20076;-71
2021/08/10 07:34:26;;;;;;;14.80;5.22;;;27.70;89.70;;;;;;5114938;28;20035;-71
2021/08/10 07:36:52;;;;;;;10.02;4.75;;;27.80;89.30;;;;;;5116190;28;20414;-70
2021/08/10 07:39:18;;;;;;;20.75;4.95;;;28.00;89.00;;;;;;5116239;28;20031;-71
2021/08/10 07:41:44;;;;;;;10.57;4.72;;;28.00;86.20;;;;;;5116130;28;20019;-71
2021/08/10 07:44:10;;;;;;;10.77;4.28;;;28.10;86.50;;;;;;5114273;28;20160;-73
2021/08/10 07:46:35;;;;;;;8.90;4.47;;;28.20;84.90;;;;;;5116057;27;20028;-69
2021/08/10 07:49:01;;;;;;;15.35;5.22;;;28.30;85.80;;;;;;5115800;28;20419;-70
2021/08/10 07:51:27;;;;;;;10.18;4.88;;;28.50;86.10;;;;;;5115306;28;20494;-73
2021/08/10 07:53:53;;;;;;;8.90;4.05;;;28.60;83.30;;;;;;5113460;28;20030;-70
2021/08/10 07:56:19;;;;;;;7.50;3.88;;;28.70;83.20;;;;;;5115892;28;20103;-72
2021/08/10 07:58:45;;;;;;;8.68;4.80;;;28.90;82.50;;;;;;5115776;28;20077;-72
2021/08/10 08:01:11;;;;;;;9.90;4.35;;;28.90;81.60;;;;;;5115755;28;20078;-73
2021/08/10 08:03:38;;;;;;;21.00;4.22;;;28.90;81.40;;;;;;5115700;28;20084;-71
2021/08/10 08:06:04;;;;;;;8.20;4.05;;;29.10;81.30;;;;;;5123032;27;20046;-70
2021/08/10 08:08:30;;;;;;;10.60;4.00;;;29.20;81.60;;;;;;5136510;27;20382;-69
2021/08/10 08:10:57;;;;;;;17.88;5.38;;;29.40;81.90;;;;;;5136175;27;20038;-69
2021/08/10 08:13:24;;;;;;;11.25;4.38;;;29.50;81.90;;;;;;5135814;27;20027;-70
2021/08/10 08:15:50;;;;;;;25.02;5.22;;;29.60;79.70;;;;;;5135482;27;20031;-70
2021/08/10 08:18:17;;;;;;;135.73;16.30;;;29.80;81.90;;;;;;5116906;27;20023;-69
2021/08/10 08:20:44;;;;;;;13.88;4.30;;;29.90;79.50;;;;;;5135587;27;20034;-71
2021/08/10 08:23:10;;;;;;;14.02;3.83;;;30.10;77.30;;;;;;5135101;27;20375;-71
2021/08/10 08:25:36;;;;;;;8.40;3.35;;;30.10;77.00;;;;;;5135581;27;20030;-70
2021/08/10 08:28:08;;;;;;;20.88;5.55;;;30.20;76.90;;;;;;5135601;27;20262;-69
2021/08/10 08:30:35;;;;;;;12.00;4.03;;;30.40;76.40;;;;;;5117269;27;20121;-71
2021/08/10 08:33:02;;;;;;;10.93;4.10;;;30.50;76.60;;;;;;5135595;27;20443;-69
2021/08/10 08:35:27;;;;;;;4.75;3.20;;;30.60;76.40;;;;;;5135411;27;20027;-68
2021/08/10 08:37:53;;;;;;;7.97;3.25;;;30.70;76.10;;;;;;5135504;27;20099;-69
2021/08/10 08:40:20;;;;;;;137.10;10.45;;;31.00;75.00;;;;;;5135607;27;20030;-69
2021/08/10 08:42:46;;;;;;;9.85;3.97;;;31.40;75.00;;;;;;5135542;27;20080;-71
2021/08/10 08:45:12;;;;;;;6.72;3.53;;;31.60;74.50;;;;;;5135483;27;20031;-71
2021/08/10 08:47:48;;;;;;;11.45;3.50;;;31.60;73.60;;;;;;5116915;27;20069;-70
2021/08/10 08:50:15;;;;;;;4.88;3.47;;;31.60;73.40;;;;;;5116859;27;20023;-70
2021/08/10 08:52:46;;;;;;;12.23;3.60;;;31.50;74.70;;;;;;5135355;27;20038;-69
2021/08/10 08:55:16;;;;;;;5.72;3.45;;;31.30;71.80;;;;;;5116832;27;20089;-69
2021/08/10 08:57:42;;;;;;;7.47;3.85;;;31.40;72.90;;;;;;5116930;27;20536;-70
2021/08/10 09:00:10;;;;;;;9.10;3.30;;;31.60;72.80;;;;;;5134542;27;20384;-69
2021/08/10 09:02:37;;;;;;;9.20;3.35;;;31.90;71.20;;;;;;5116544;27;20019;-69
2021/08/10 09:05:04;;;;;;;6.05;3.53;;;32.10;69.80;;;;;;5134658;27;20054;-69
2021/08/10 09:07:30;;;;;;;7.05;3.08;;;32.30;70.50;;;;;;5114747;27;20027;-71
2021/08/10 09:10:10;;;;;;;6.45;3.15;;;32.30;71.20;;;;;;5115443;27;20050;-71
2021/08/10 09:12:57;;;;;;;4.75;3.42;;;32.40;71.80;;;;;;5135327;27;20015;-70
2021/08/10 09:15:39;;;;;;;4.43;3.20;;;32.50;72.60;;;;;;5116578;27;20035;-70
2021/08/10 09:18:10;;;;;;;8.13;2.55;;;32.50;68.80;;;;;;5116480;27;20034;-69
2021/08/10 09:20:37;;;;;;;7.65;3.10;;;32.60;65.60;;;;;;5134804;27;20071;-70
2021/08/10 09:23:03;;;;;;;8.25;3.70;;;32.70;70.10;;;;;;5134830;27;20031;-70
2021/08/10 09:25:31;;;;;;;5.50;2.83;;;32.90;68.50;;;;;;5116242;27;20039;-69
2021/08/10 09:28:06;;;;;;;8.38;3.40;;;32.90;68.00;;;;;;5134730;27;20055;-70
2021/08/10 09:30:34;;;;;;;12.52;3.83;;;33.00;68.30;;;;;;5134645;27;20029;-70
2021/08/10 09:33:05;;;;;;;8.18;2.95;;;33.20;68.10;;;;;;5115458;27;20027;-71
2021/08/10 09:35:37;;;;;;;;;;;33.40;66.50;;;;;;5134513;27;20058;-69
2021/08/10 09:38:11;;;;;;;5.28;2.78;;;33.50;65.40;;;;;;5134619;27;19903;-70
2021/08/10 09:40:44;;;;;;;7.68;3.30;;;33.60;66.30;;;;;;5134515;27;20023;-69
2021/08/10 09:43:25;;;;;;;4.32;3.13;;;33.80;67.40;;;;;;5115991;27;20386;-71
2021/08/10 09:46:08;;;;;;;4.78;3.10;;;34.00;64.50;;;;;;5115919;27;20069;-71
2021/08/10 09:48:34;;;;;;;6.53;3.47;;;34.20;63.60;;;;;;5134182;27;20053;-70
2021/08/10 09:51:15;;;;;;;11.35;3.17;;;34.30;63.10;;;;;;5134292;27;20069;-67
2021/08/10 09:53:42;;;;;;;4.97;3.30;;;34.10;62.80;;;;;;5134217;27;20050;-68
2021/08/10 09:56:08;;;;;;;7.43;3.28;;;34.20;64.10;;;;;;5133884;27;20373;-69
2021/08/10 09:59:00;;;;;;;3.72;2.90;;;34.10;61.60;;;;;;5134269;27;20478;-70
2021/08/10 10:01:34;;;;;;;4.43;3.05;;;34.30;64.10;;;;;;5134164;27;20040;-71
2021/08/10 10:04:17;;;;;;;19.77;3.60;;;34.40;63.60;;;;;;5134085;27;20038;-71
2021/08/10 10:06:44;;;;;;;6.13;3.35;;;34.70;64.40;;;;;;5115642;27;20028;-68
2021/08/10 10:09:11;;;;;;;8.68;3.67;;;34.70;62.30;;;;;;5134049;27;20400;-69
2021/08/10 10:11:40;;;;;;;3.28;2.72;;;34.70;62.40;;;;;;5115575;27;20038;-67
2021/08/10 10:14:06;;;;;;;2.83;2.53;;;34.40;61.80;;;;;;5134283;28;20046;-69
2021/08/10 10:16:33;;;;;;;6.47;2.60;;;34.10;59.30;;;;;;5133589;28;20118;-71
2021/08/10 10:19:10;;;;;;;4.03;3.13;;;33.80;59.70;;;;;;5133407;28;20028;-68
2021/08/10 10:21:48;;;;;;;5.57;3.00;;;33.90;61.50;;;;;;5133952;28;20572;-72
2021/08/10 10:24:15;;;;;;;4.93;3.15;;;34.10;60.80;;;;;;5115313;28;20027;-68
2021/08/10 10:26:44;;;;;;;8.20;2.80;;;34.50;61.80;;;;;;5115464;28;20113;-69
2021/08/10 10:29:12;;;;;;;4.45;2.88;;;34.90;62.70;;;;;;5133818;28;20026;-71
2021/08/10 10:31:39;;;;;;;3.40;2.60;;;35.20;61.30;;;;;;5115273;28;20171;-68
2021/08/10 10:34:06;;;;;;;6.47;3.28;;;;;;;;;;5133529;28;20391;-70
2021/08/10 10:36:33;;;;;;;4.88;2.75;;;;;;;;;;5115452;28;20023;-69
2021/08/10 10:39:00;;;;;;;6.15;2.97;;;;;;;;;;5133883;28;20479;-70
2021/08/10 10:41:30;;;;;;;5.88;2.83;;;;;;;;;;5133551;28;20439;-69
2021/08/10 10:43:55;;;;;;;6.78;2.90;;;35.60;60.60;;;;;;5133666;27;20054;-70
2021/08/10 10:46:26;;;;;;;8.13;2.60;;;38.50;57.40;;;;;;5118507;27;20112;-71
2021/08/10 10:48:52;;;;;;;9.80;3.10;;;38.90;55.90;;;;;;5137226;27;20051;-72
2021/08/10 10:51:35;;;;;;;5.35;2.65;;;39.10;54.40;;;;;;5119214;27;20395;-71
2021/08/10 10:54:27;;;;;;;7.72;3.30;;;39.60;53.00;;;;;;5137768;27;20502;-70
2021/08/10 10:56:59;;;;;;;5.60;2.70;;;40.30;53.00;;;;;;5119015;27;20031;-69
2021/08/10 10:59:36;;;;;;;5.90;2.75;;;40.80;51.50;;;;;;5137612;27;20360;-70
2021/08/10 11:02:11;;;;;;;7.85;2.80;;;40.90;51.70;;;;;;5137530;27;20023;-70
2021/08/10 11:04:37;;;;;;;7.10;2.83;;;41.50;51.00;;;;;;5137278;27;20031;-71
2021/08/10 11:07:43;;;;;;;8.40;2.92;;;42.00;50.70;;;;;;5119024;27;20467;-70
2021/08/10 11:10:39;;;;;;;7.28;2.90;;;42.50;48.60;;;;;;5017098;28;20072;-70
2021/08/10 11:13:25;;;;;;;4.32;2.47;;;42.90;47.80;;;;;;5137282;27;20031;-70
2021/08/10 11:15:50;;;;;;;4.95;2.22;;;42.40;48.00;;;;;;5118463;27;20063;-70
2021/08/10 11:18:16;;;;;;;5.88;2.90;;;43.00;47.40;;;;;;5137307;27;20054;-73
2021/08/10 11:20:43;;;;;;;6.80;2.75;;;43.10;48.10;;;;;;5137129;27;20459;-70
2021/08/10 11:23:21;;;;;;;4.95;2.67;;;43.70;47.00;;;;;;5136005;27;20510;-72
2021/08/10 11:25:54;;;;;;;6.90;2.78;;;44.30;47.10;;;;;;5135341;27;20091;-70
2021/08/10 11:28:34;;;;;;;4.15;2.90;;;44.40;46.60;;;;;;5137133;27;20023;-70
2021/08/10 11:31:01;;;;;;;2.67;2.33;;;44.20;44.70;;;;;;5118330;27;20463;-69
2021/08/10 11:33:41;;;;;;;4.50;2.65;;;44.10;46.10;;;;;;5136488;27;20034;-72
2021/08/10 11:36:10;;;;;;;6.30;2.88;;;44.50;45.60;;;;;;5136927;27;20520;-71
2021/08/10 11:38:52;;;;;;;4.55;2.35;;;44.50;44.90;;;;;;5136857;27;20023;-73
2021/08/10 11:41:27;;;;;;;4.30;2.70;;;45.00;44.40;;;;;;5136804;27;20024;-70
2021/08/10 11:44:04;;;;;;;3.65;2.65;;;45.50;44.70;;;;;;5136642;27;20551;-70
2021/08/10 11:46:31;;;;;;;7.22;2.65;;;45.50;45.00;;;;;;5136620;27;20535;-70
2021/08/10 11:49:00;;;;;;;4.57;2.95;;;45.90;44.50;;;;;;5117504;27;20492;-72
2021/08/10 11:51:35;;;;;;;3.67;2.80;;;46.30;43.80;;;;;;5136540;27;20028;-72
2021/08/10 11:54:20;;;;;;;3.13;2.63;;;46.50;43.50;;;;;;5136621;27;20023;-72
2021/08/10 11:57:01;;;;;;;3.15;2.75;;;46.80;42.90;;;;;;5135109;27;20444;-71
2021/08/10 11:59:27;;;;;;;4.93;2.55;;;46.90;42.70;;;;;;5136282;27;20495;-70
2021/08/10 12:01:59;;;;;;;4.57;2.35;;;47.30;42.70;;;;;;5136300;27;20084;-69
2021/08/10 12:04:27;;;;;;;4.13;2.40;;;47.50;41.30;;;;;;5136236;27;20034;-70
2021/08/10 12:06:57;;;;;;;6.65;2.40;;;47.70;42.40;;;;;;5135761;27;20038;-69
2021/08/10 12:09:39;;;;;;;7.95;2.65;;;47.80;41.80;;;;;;5117763;27;20034;-72
2021/08/10 12:12:12;;;;;;;8.00;3.55;;;48.00;41.50;;;;;;5136315;27;20030;-72
2021/08/10 12:14:41;;;;;;;4.35;2.78;;;48.30;41.20;;;;;;5135803;27;20517;-71
2021/08/10 12:17:09;;;;;;;4.00;2.70;;;48.50;40.80;;;;;;5117596;27;20482;-72
2021/08/10 12:19:37;;;;;;;5.22;3.05;;;48.50;40.60;;;;;;5136197;27;20027;-71
